sensor_id;sensor_type;location;lat;lon;timestamp;temperature;humidity
39079;DHT22;24829;49.208;12.080;2023-08-17T00:02:13;21.40;99.90
39079;DHT22;24829;49.208;12.080;2023-08-17T00:04:39;21.40;99.90
39079;DHT22;24829;49.208;12.080;2023-08-17T00:07:05;21.40;99.90
39079;DHT22;24829;49.208;12.080;2023-08-17T00:09:30;21.40;99.90
39079;DHT22;24829;49.208;12.080;2023-08-17T00:11:56;21.50;99.90
39079;DHT22;24829;49.208;12.080;2023-08-17T00:14:22;21.50;99.90
39079;DHT22;24829;49.208;12.080;2023-08-17T00:16:49;21.40;99.90
39079;DHT22;24829;49.208;12.080;2023-08-17T00:19:15;21.30;99.90
39079;DHT22;24829;49.208;12.080;2023-08-17T00:21:41;21.20;99.90
39079;DHT22;24829;49.208;12.080;2023-08-17T00:24:06;21.10;99.90
39079;DHT22;24829;49.208;12.080;2023-08-17T00:26:32;21.10;99.90
39079;DHT22;24829;49.208;12.080;2023-08-17T00:28:58;21.10;99.90
39079;DHT22;24829;49.208;12.080;2023-08-17T00:31:23;21.10;99.90
39079;DHT22;24829;49.208;12.080;2023-08-17T00:33:49;21.10;99.90
39079;DHT22;24829;49.208;12.080;2023-08-17T00:36:14;21.10;99.90
39079;DHT22;24829;49.208;12.080;2023-08-17T00:38:41;21.10;99.90
39079;DHT22;24829;49.208;12.080;2023-08-17T00:41:06;21.10;99.90
39079;DHT22;24829;49.208;12.080;2023-08-17T00:43:32;21.10;99.90
39079;DHT22;24829;49.208;12.080;2023-08-17T00:45:58;21.20;99.90
39079;DHT22;24829;49.208;12.080;2023-08-17T00:48:23;21.10;99.90
39079;DHT22;24829;49.208;12.080;2023-08-17T00:50:50;21.10;99.90
39079;DHT22;24829;49.208;12.080;2023-08-17T00:53:19;21.10;99.90
39079;DHT22;24829;49.208;12.080;2023-08-17T00:55:45;21.20;99.90
39079;DHT22;24829;49.208;12.080;2023-08-17T00:58:11;21.10;99.90
39079;DHT22;24829;49.208;12.080;2023-08-17T01:00:37;21.10;99.90
39079;DHT22;24829;49.208;12.080;2023-08-17T01:03:03;21.00;99.90
39079;DHT22;24829;49.208;12.080;2023-08-17T01:05:30;21.10;99.90
39079;DHT22;24829;49.208;12.080;2023-08-17T01:07:58;21.00;99.90
39079;DHT22;24829;49.208;12.080;2023-08-17T01:10:34;21.00;99.90
39079;DHT22;24829;49.208;12.080;2023-08-17T01:13:09;21.00;99.90
39079;DHT22;24829;49.208;12.080;2023-08-17T01:15:37;20.90;99.90
39079;DHT22;24829;49.208;12.080;2023-08-17T01:18:29;20.80;99.90
39079;DHT22;24829;49.208;12.080;2023-08-17T01:20:57;20.80;99.90
39079;DHT22;24829;49.208;12.080;2023-08-17T01:23:22;20.90;99.90
39079;DHT22;24829;49.208;12.080;2023-08-17T01:25:48;20.80;99.90
39079;DHT22;24829;49.208;12.080;2023-08-17T01:28:15;20.80;99.90
39079;DHT22;24829;49.208;12.080;2023-08-17T01:30:50;20.90;99.90
39079;DHT22;24829;49.208;12.080;2023-08-17T01:33:28;20.80;99.90
39079;DHT22;24829;49.208;12.080;2023-08-17T01:38:25;20.90;99.90
39079;DHT22;24829;49.208;12.080;2023-08-17T01:40:52;20.90;99.90
39079;DHT22;24829;49.208;12.080;2023-08-17T01:43:18;21.00;99.90
39079;DHT22;24829;49.208;12.080;2023-08-17T01:45:45;20.90;99.90
39079;DHT22;24829;49.208;12.080;2023-08-17T01:48:11;20.90;99.90
39079;DHT22;24829;49.208;12.080;2023-08-17T01:50:37;20.90;99.90
39079;DHT22;24829;49.208;12.080;2023-08-17T01:53:02;20.90;99.90
39079;DHT22;24829;49.208;12.080;2023-08-17T01:55:28;20.90;99.90
39079;DHT22;24829;49.208;12.080;2023-08-17T01:57:54;20.90;99.90
39079;DHT22;24829;49.208;12.080;2023-08-17T02:00:19;21.00;99.90
39079;DHT22;24829;49.208;12.080;2023-08-17T02:02:45;20.90;99.90
39079;DHT22;24829;49.208;12.080;2023-08-17T02:05:10;20.90;99.90
39079;DHT22;24829;49.208;12.080;2023-08-17T02:07:36;20.90;99.90
39079;DHT22;24829;49.208;12.080;2023-08-17T02:10:01;20.80;99.90
39079;DHT22;24829;49.208;12.080;2023-08-17T02:12:27;20.80;99.90
39079;DHT22;24829;49.208;12.080;2023-08-17T02:14:53;20.70;99.90
39079;DHT22;24829;49.208;12.080;2023-08-17T02:17:19;20.80;99.90
39079;DHT22;24829;49.208;12.080;2023-08-17T02:19:46;20.80;99.90
39079;DHT22;24829;49.208;12.080;2023-08-17T02:22:13;20.80;99.90
39079;DHT22;24829;49.208;12.080;2023-08-17T02:24:38;20.70;99.90
39079;DHT22;24829;49.208;12.080;2023-08-17T02:27:04;20.70;99.90
39079;DHT22;24829;49.208;12.080;2023-08-17T02:29:30;20.70;99.90
39079;DHT22;24829;49.208;12.080;2023-08-17T02:31:55;20.70;99.90
39079;DHT22;24829;49.208;12.080;2023-08-17T02:34:21;20.70;99.90
39079;DHT22;24829;49.208;12.080;2023-08-17T02:36:47;20.70;99.90
39079;DHT22;24829;49.208;12.080;2023-08-17T02:39:12;20.70;99.90
39079;DHT22;24829;49.208;12.080;2023-08-17T02:41:38;20.70;99.90
39079;DHT22;24829;49.208;12.080;2023-08-17T02:44:03;20.70;99.90
39079;DHT22;24829;49.208;12.080;2023-08-17T02:46:29;20.70;99.90
39079;DHT22;24829;49.208;12.080;2023-08-17T02:48:54;20.70;99.90
39079;DHT22;24829;49.208;12.080;2023-08-17T02:51:20;20.60;99.90
39079;DHT22;24829;49.208;12.080;2023-08-17T02:53:46;20.60;99.90
39079;DHT22;24829;49.208;12.080;2023-08-17T02:56:11;20.50;99.90
39079;DHT22;24829;49.208;12.080;2023-08-17T02:58:41;20.40;99.90
39079;DHT22;24829;49.208;12.080;2023-08-17T03:01:09;20.30;99.90
39079;DHT22;24829;49.208;12.080;2023-08-17T03:03:35;20.30;99.90
39079;DHT22;24829;49.208;12.080;2023-08-17T03:06:04;20.30;99.90
39079;DHT22;24829;49.208;12.080;2023-08-17T03:08:30;20.20;99.90
39079;DHT22;24829;49.208;12.080;2023-08-17T03:10:55;20.20;99.90
39079;DHT22;24829;49.208;12.080;2023-08-17T03:13:21;20.20;99.90
39079;DHT22;24829;49.208;12.080;2023-08-17T03:15:46;20.20;99.90
39079;DHT22;24829;49.208;12.080;2023-08-17T03:18:12;20.30;99.90
39079;DHT22;24829;49.208;12.080;2023-08-17T03:20:37;20.40;99.90
39079;DHT22;24829;49.208;12.080;2023-08-17T03:23:03;20.40;99.90
39079;DHT22;24829;49.208;12.080;2023-08-17T03:25:32;20.30;99.90
39079;DHT22;24829;49.208;12.080;2023-08-17T03:27:59;20.30;99.90
39079;DHT22;24829;49.208;12.080;2023-08-17T03:30:24;20.30;99.90
39079;DHT22;24829;49.208;12.080;2023-08-17T03:32:50;20.30;99.90
39079;DHT22;24829;49.208;12.080;2023-08-17T03:35:15;20.30;99.90
39079;DHT22;24829;49.208;12.080;2023-08-17T03:37:41;20.20;99.90
39079;DHT22;24829;49.208;12.080;2023-08-17T03:40:07;20.20;99.90
39079;DHT22;24829;49.208;12.080;2023-08-17T03:42:33;20.20;99.90
39079;DHT22;24829;49.208;12.080;2023-08-17T03:44:58;20.20;99.90
39079;DHT22;24829;49.208;12.080;2023-08-17T03:47:24;20.20;99.90
39079;DHT22;24829;49.208;12.080;2023-08-17T03:49:51;20.20;99.90
39079;DHT22;24829;49.208;12.080;2023-08-17T03:52:17;20.10;99.90
39079;DHT22;24829;49.208;12.080;2023-08-17T03:54:42;20.20;99.90
39079;DHT22;24829;49.208;12.080;2023-08-17T03:57:08;20.20;99.90
39079;DHT22;24829;49.208;12.080;2023-08-17T03:59:33;20.20;99.90
39079;DHT22;24829;49.208;12.080;2023-08-17T04:01:59;20.20;99.90
39079;DHT22;24829;49.208;12.080;2023-08-17T04:04:24;20.10;99.90
39079;DHT22;24829;49.208;12.080;2023-08-17T04:06:50;20.10;99.90
39079;DHT22;24829;49.208;12.080;2023-08-17T04:09:15;20.00;99.90
39079;DHT22;24829;49.208;12.080;2023-08-17T04:11:41;20.00;99.90
39079;DHT22;24829;49.208;12.080;2023-08-17T04:14:07;19.90;99.90
39079;DHT22;24829;49.208;12.080;2023-08-17T04:16:34;19.90;99.90
39079;DHT22;24829;49.208;12.080;2023-08-17T04:19:00;19.80;99.90
39079;DHT22;24829;49.208;12.080;2023-08-17T04:21:25;19.80;99.90
39079;DHT22;24829;49.208;12.080;2023-08-17T04:23:51;19.70;99.90
39079;DHT22;24829;49.208;12.080;2023-08-17T04:26:16;19.70;99.90
39079;DHT22;24829;49.208;12.080;2023-08-17T04:28:42;19.80;99.90
39079;DHT22;24829;49.208;12.080;2023-08-17T04:31:08;19.80;99.90
39079;DHT22;24829;49.208;12.080;2023-08-17T04:33:33;19.90;99.90
39079;DHT22;24829;49.208;12.080;2023-08-17T04:35:59;20.00;99.90
39079;DHT22;24829;49.208;12.080;2023-08-17T04:38:26;20.00;99.90
39079;DHT22;24829;49.208;12.080;2023-08-17T04:40:52;20.10;99.90
39079;DHT22;24829;49.208;12.080;2023-08-17T04:43:17;20.20;99.90
39079;DHT22;24829;49.208;12.080;2023-08-17T04:45:43;20.20;99.90
39079;DHT22;24829;49.208;12.080;2023-08-17T04:48:09;20.30;99.90
39079;DHT22;24829;49.208;12.080;2023-08-17T04:50:35;20.30;99.90
39079;DHT22;24829;49.208;12.080;2023-08-17T04:53:00;20.30;99.90
39079;DHT22;24829;49.208;12.080;2023-08-17T04:55:26;20.40;99.90
39079;DHT22;24829;49.208;12.080;2023-08-17T04:57:51;20.70;99.90
39079;DHT22;24829;49.208;12.080;2023-08-17T05:00:17;21.20;99.90
39079;DHT22;24829;49.208;12.080;2023-08-17T05:02:43;21.70;99.90
39079;DHT22;24829;49.208;12.080;2023-08-17T05:05:10;22.10;99.90
39079;DHT22;24829;49.208;12.080;2023-08-17T05:07:35;22.50;99.90
39079;DHT22;24829;49.208;12.080;2023-08-17T05:10:02;22.90;99.90
39079;DHT22;24829;49.208;12.080;2023-08-17T05:12:28;23.30;99.90
39079;DHT22;24829;49.208;12.080;2023-08-17T05:14:53;23.60;99.90
39079;DHT22;24829;49.208;12.080;2023-08-17T05:17:19;24.00;99.90
39079;DHT22;24829;49.208;12.080;2023-08-17T05:19:44;24.50;99.90
39079;DHT22;24829;49.208;12.080;2023-08-17T05:22:11;24.80;99.90
39079;DHT22;24829;49.208;12.080;2023-08-17T05:24:37;25.20;99.90
39079;DHT22;24829;49.208;12.080;2023-08-17T05:27:03;25.60;99.90
39079;DHT22;24829;49.208;12.080;2023-08-17T05:29:28;25.90;99.90
39079;DHT22;24829;49.208;12.080;2023-08-17T05:31:54;26.10;99.90
39079;DHT22;24829;49.208;12.080;2023-08-17T05:34:20;26.30;99.90
39079;DHT22;24829;49.208;12.080;2023-08-17T05:36:45;26.60;99.90
39079;DHT22;24829;49.208;12.080;2023-08-17T05:39:11;26.80;99.90
39079;DHT22;24829;49.208;12.080;2023-08-17T05:41:36;27.00;99.90
39079;DHT22;24829;49.208;12.080;2023-08-17T05:44:02;27.10;99.90
39079;DHT22;24829;49.208;12.080;2023-08-17T05:46:28;27.00;99.90
39079;DHT22;24829;49.208;12.080;2023-08-17T05:48:54;27.00;99.90
39079;DHT22;24829;49.208;12.080;2023-08-17T05:51:19;27.00;99.90
39079;DHT22;24829;49.208;12.080;2023-08-17T05:53:45;26.60;99.90
39079;DHT22;24829;49.208;12.080;2023-08-17T05:56:10;26.20;99.90
39079;DHT22;24829;49.208;12.080;2023-08-17T05:58:36;25.70;99.90
39079;DHT22;24829;49.208;12.080;2023-08-17T06:01:09;25.30;99.90
39079;DHT22;24829;49.208;12.080;2023-08-17T06:03:35;25.00;99.90
39079;DHT22;24829;49.208;12.080;2023-08-17T06:06:01;24.70;99.90
39079;DHT22;24829;49.208;12.080;2023-08-17T06:08:27;24.60;99.90
39079;DHT22;24829;49.208;12.080;2023-08-17T06:10:53;24.50;99.90
39079;DHT22;24829;49.208;12.080;2023-08-17T06:13:19;24.60;99.90
39079;DHT22;24829;49.208;12.080;2023-08-17T06:15:44;24.60;99.90
39079;DHT22;24829;49.208;12.080;2023-08-17T06:18:10;24.70;99.90
39079;DHT22;24829;49.208;12.080;2023-08-17T06:20:35;24.80;99.90
39079;DHT22;24829;49.208;12.080;2023-08-17T06:23:01;24.90;99.90
39079;DHT22;24829;49.208;12.080;2023-08-17T06:25:27;25.40;99.90
39079;DHT22;24829;49.208;12.080;2023-08-17T06:27:52;25.80;99.90
39079;DHT22;24829;49.208;12.080;2023-08-17T06:30:18;26.10;99.90
39079;DHT22;24829;49.208;12.080;2023-08-17T06:32:44;26.00;99.90
39079;DHT22;24829;49.208;12.080;2023-08-17T06:35:09;25.80;99.90
39079;DHT22;24829;49.208;12.080;2023-08-17T06:37:35;25.60;99.90
39079;DHT22;24829;49.208;12.080;2023-08-17T06:40:03;25.60;99.90
39079;DHT22;24829;49.208;12.080;2023-08-17T06:42:30;25.70;99.90
39079;DHT22;24829;49.208;12.080;2023-08-17T06:44:56;25.80;99.90
39079;DHT22;24829;49.208;12.080;2023-08-17T06:47:22;25.80;99.90
39079;DHT22;24829;49.208;12.080;2023-08-17T06:49:47;25.80;99.90
39079;DHT22;24829;49.208;12.080;2023-08-17T06:52:13;25.80;99.90
39079;DHT22;24829;49.208;12.080;2023-08-17T06:54:38;25.90;99.90
39079;DHT22;24829;49.208;12.080;2023-08-17T06:57:04;25.80;99.90
39079;DHT22;24829;49.208;12.080;2023-08-17T06:59:30;25.80;99.90
39079;DHT22;24829;49.208;12.080;2023-08-17T07:01:57;25.90;99.90
39079;DHT22;24829;49.208;12.080;2023-08-17T07:04:22;26.10;99.90
39079;DHT22;24829;49.208;12.080;2023-08-17T07:06:48;26.40;99.90
39079;DHT22;24829;49.208;12.080;2023-08-17T07:09:14;26.60;99.90
39079;DHT22;24829;49.208;12.080;2023-08-17T07:11:40;26.80;99.90
39079;DHT22;24829;49.208;12.080;2023-08-17T07:14:06;26.80;99.90
39079;DHT22;24829;49.208;12.080;2023-08-17T07:16:32;27.00;99.90
39079;DHT22;24829;49.208;12.080;2023-08-17T07:18:58;27.20;99.90
39079;DHT22;24829;49.208;12.080;2023-08-17T07:21:23;27.40;99.90
39079;DHT22;24829;49.208;12.080;2023-08-17T07:23:50;27.40;99.90
39079;DHT22;24829;49.208;12.080;2023-08-17T07:26:16;27.50;99.90
39079;DHT22;24829;49.208;12.080;2023-08-17T07:28:44;27.60;99.90
39079;DHT22;24829;49.208;12.080;2023-08-17T07:31:10;27.80;99.90
39079;DHT22;24829;49.208;12.080;2023-08-17T07:33:36;27.90;99.90
39079;DHT22;24829;49.208;12.080;2023-08-17T07:36:02;27.90;99.90
39079;DHT22;24829;49.208;12.080;2023-08-17T07:38:28;28.00;99.90
39079;DHT22;24829;49.208;12.080;2023-08-17T07:40:54;28.00;99.90
39079;DHT22;24829;49.208;12.080;2023-08-17T07:43:20;28.00;99.90
39079;DHT22;24829;49.208;12.080;2023-08-17T07:45:46;28.00;99.90
39079;DHT22;24829;49.208;12.080;2023-08-17T07:48:11;28.20;99.90
39079;DHT22;24829;49.208;12.080;2023-08-17T07:50:37;28.30;99.90
39079;DHT22;24829;49.208;12.080;2023-08-17T07:53:03;28.30;99.90
39079;DHT22;24829;49.208;12.080;2023-08-17T07:55:28;28.30;99.90
39079;DHT22;24829;49.208;12.080;2023-08-17T07:57:54;28.50;99.90
39079;DHT22;24829;49.208;12.080;2023-08-17T08:00:19;28.70;99.90
39079;DHT22;24829;49.208;12.080;2023-08-17T08:02:46;28.90;99.90
39079;DHT22;24829;49.208;12.080;2023-08-17T08:05:12;29.10;99.90
39079;DHT22;24829;49.208;12.080;2023-08-17T08:07:39;29.00;99.90
39079;DHT22;24829;49.208;12.080;2023-08-17T08:10:05;28.90;99.90
39079;DHT22;24829;49.208;12.080;2023-08-17T08:12:31;29.00;99.90
39079;DHT22;24829;49.208;12.080;2023-08-17T08:14:56;29.00;99.90
39079;DHT22;24829;49.208;12.080;2023-08-17T08:17:22;28.90;99.90
39079;DHT22;24829;49.208;12.080;2023-08-17T08:19:47;28.80;99.90
39079;DHT22;24829;49.208;12.080;2023-08-17T08:22:13;28.60;99.90
39079;DHT22;24829;49.208;12.080;2023-08-17T08:24:38;28.50;99.90
39079;DHT22;24829;49.208;12.080;2023-08-17T08:27:06;28.60;99.90
39079;DHT22;24829;49.208;12.080;2023-08-17T08:29:32;28.60;99.90
39079;DHT22;24829;49.208;12.080;2023-08-17T08:31:57;28.70;99.90
39079;DHT22;24829;49.208;12.080;2023-08-17T08:34:25;28.80;99.90
39079;DHT22;24829;49.208;12.080;2023-08-17T08:36:50;28.80;99.90
39079;DHT22;24829;49.208;12.080;2023-08-17T08:39:16;28.70;99.90
39079;DHT22;24829;49.208;12.080;2023-08-17T08:41:41;28.70;99.90
39079;DHT22;24829;49.208;12.080;2023-08-17T08:44:07;28.60;99.90
39079;DHT22;24829;49.208;12.080;2023-08-17T08:46:33;28.70;99.90
39079;DHT22;24829;49.208;12.080;2023-08-17T08:49:00;28.50;99.90
39079;DHT22;24829;49.208;12.080;2023-08-17T08:51:27;28.50;99.90
39079;DHT22;24829;49.208;12.080;2023-08-17T08:54:01;28.70;99.90
39079;DHT22;24829;49.208;12.080;2023-08-17T08:56:33;28.70;99.90
39079;DHT22;24829;49.208;12.080;2023-08-17T08:59:04;28.80;99.90
39079;DHT22;24829;49.208;12.080;2023-08-17T09:01:33;28.70;99.90
39079;DHT22;24829;49.208;12.080;2023-08-17T09:03:59;28.60;99.90
39079;DHT22;24829;49.208;12.080;2023-08-17T09:06:29;28.70;99.90
39079;DHT22;24829;49.208;12.080;2023-08-17T09:08:57;28.70;99.90
39079;DHT22;24829;49.208;12.080;2023-08-17T09:11:23;28.90;99.90
39079;DHT22;24829;49.208;12.080;2023-08-17T09:13:49;28.90;99.90
39079;DHT22;24829;49.208;12.080;2023-08-17T09:16:15;29.00;99.90
39079;DHT22;24829;49.208;12.080;2023-08-17T09:18:40;29.10;99.90
39079;DHT22;24829;49.208;12.080;2023-08-17T09:21:07;29.10;99.90
39079;DHT22;24829;49.208;12.080;2023-08-17T09:23:32;29.30;99.90
39079;DHT22;24829;49.208;12.080;2023-08-17T09:26:08;29.40;99.90
39079;DHT22;24829;49.208;12.080;2023-08-17T09:28:33;29.50;99.90
39079;DHT22;24829;49.208;12.080;2023-08-17T09:31:02;29.60;99.90
39079;DHT22;24829;49.208;12.080;2023-08-17T09:33:31;29.80;99.90
39079;DHT22;24829;49.208;12.080;2023-08-17T09:35:59;29.90;99.90
39079;DHT22;24829;49.208;12.080;2023-08-17T09:38:25;29.90;99.90
39079;DHT22;24829;49.208;12.080;2023-08-17T09:40:51;29.90;99.90
39079;DHT22;24829;49.208;12.080;2023-08-17T09:43:18;29.90;99.90
39079;DHT22;24829;49.208;12.080;2023-08-17T09:45:44;30.00;99.90
39079;DHT22;24829;49.208;12.080;2023-08-17T09:48:15;29.90;99.90
39079;DHT22;24829;49.208;12.080;2023-08-17T09:50:43;29.90;99.90
39079;DHT22;24829;49.208;12.080;2023-08-17T09:53:13;30.00;99.90
39079;DHT22;24829;49.208;12.080;2023-08-17T09:55:41;30.10;99.90
39079;DHT22;24829;49.208;12.080;2023-08-17T09:58:06;30.10;99.90
39079;DHT22;24829;49.208;12.080;2023-08-17T10:00:34;30.00;99.90
39079;DHT22;24829;49.208;12.080;2023-08-17T10:03:02;30.00;99.90
39079;DHT22;24829;49.208;12.080;2023-08-17T10:05:31;30.10;99.90
39079;DHT22;24829;49.208;12.080;2023-08-17T10:07:59;30.30;99.90
39079;DHT22;24829;49.208;12.080;2023-08-17T10:10:27;30.40;99.90
39079;DHT22;24829;49.208;12.080;2023-08-17T10:15:59;30.50;99.90
39079;DHT22;24829;49.208;12.080;2023-08-17T10:18:40;30.50;99.90
39079;DHT22;24829;49.208;12.080;2023-08-17T10:21:10;30.60;99.90
39079;DHT22;24829;49.208;12.080;2023-08-17T10:23:38;30.60;99.90
39079;DHT22;24829;49.208;12.080;2023-08-17T10:26:04;30.80;99.90
39079;DHT22;24829;49.208;12.080;2023-08-17T10:28:33;30.80;99.80
39079;DHT22;24829;49.208;12.080;2023-08-17T10:30:59;31.00;99.60
39079;DHT22;24829;49.208;12.080;2023-08-17T10:33:26;31.10;99.40
39079;DHT22;24829;49.208;12.080;2023-08-17T10:35:52;31.00;99.30
39079;DHT22;24829;49.208;12.080;2023-08-17T10:38:18;31.00;99.20
39079;DHT22;24829;49.208;12.080;2023-08-17T10:40:44;31.00;99.40
39079;DHT22;24829;49.208;12.080;2023-08-17T10:43:09;30.90;99.90
39079;DHT22;24829;49.208;12.080;2023-08-17T10:45:36;30.90;99.40
39079;DHT22;24829;49.208;12.080;2023-08-17T10:50:33;30.60;99.90
39079;DHT22;24829;49.208;12.080;2023-08-17T10:53:04;30.50;99.90
39079;DHT22;24829;49.208;12.080;2023-08-17T10:55:38;30.40;99.90
39079;DHT22;24829;49.208;12.080;2023-08-17T10:58:05;30.50;99.90
39079;DHT22;24829;49.208;12.080;2023-08-17T11:00:38;30.60;99.90
39079;DHT22;24829;49.208;12.080;2023-08-17T11:08:34;31.20;98.70
39079;DHT22;24829;49.208;12.080;2023-08-17T11:11:06;31.00;97.80
39079;DHT22;24829;49.208;12.080;2023-08-17T11:13:39;30.90;98.10
39079;DHT22;24829;49.208;12.080;2023-08-17T11:16:06;30.90;98.00
39079;DHT22;24829;49.208;12.080;2023-08-17T11:18:32;31.00;98.00
39079;DHT22;24829;49.208;12.080;2023-08-17T11:20:58;31.10;98.70
39079;DHT22;24829;49.208;12.080;2023-08-17T11:23:24;31.20;98.30
39079;DHT22;24829;49.208;12.080;2023-08-17T11:25:53;31.20;98.90
39079;DHT22;24829;49.208;12.080;2023-08-17T11:28:19;31.40;98.20
39079;DHT22;24829;49.208;12.080;2023-08-17T11:30:44;31.40;97.80
39079;DHT22;24829;49.208;12.080;2023-08-17T11:33:10;31.50;97.90
39079;DHT22;24829;49.208;12.080;2023-08-17T11:35:37;31.50;97.20
39079;DHT22;24829;49.208;12.080;2023-08-17T11:38:03;31.50;96.80
39079;DHT22;24829;49.208;12.080;2023-08-17T11:40:29;31.50;96.90
39079;DHT22;24829;49.208;12.080;2023-08-17T11:42:55;31.50;97.10
39079;DHT22;24829;49.208;12.080;2023-08-17T11:45:21;31.60;96.90
39079;DHT22;24829;49.208;12.080;2023-08-17T11:47:47;31.70;97.10
39079;DHT22;24829;49.208;12.080;2023-08-17T11:50:13;31.90;96.90
39079;DHT22;24829;49.208;12.080;2023-08-17T11:52:39;31.80;97.00
39079;DHT22;24829;49.208;12.080;2023-08-17T11:55:06;31.80;97.30
39079;DHT22;24829;49.208;12.080;2023-08-17T11:57:33;31.70;96.80
39079;DHT22;24829;49.208;12.080;2023-08-17T11:59:59;31.50;96.20
39079;DHT22;24829;49.208;12.080;2023-08-17T12:02:27;31.50;96.60
39079;DHT22;24829;49.208;12.080;2023-08-17T12:04:54;31.40;96.50
39079;DHT22;24829;49.208;12.080;2023-08-17T12:07:21;31.40;97.50
39079;DHT22;24829;49.208;12.080;2023-08-17T12:09:48;31.50;97.20
39079;DHT22;24829;49.208;12.080;2023-08-17T12:12:17;31.60;97.30
39079;DHT22;24829;49.208;12.080;2023-08-17T12:14:43;31.50;96.50
39079;DHT22;24829;49.208;12.080;2023-08-17T12:17:16;31.60;96.20
39079;DHT22;24829;49.208;12.080;2023-08-17T12:19:43;31.50;97.20
39079;DHT22;24829;49.208;12.080;2023-08-17T12:22:09;31.70;96.80
39079;DHT22;24829;49.208;12.080;2023-08-17T12:24:35;31.90;96.70
39079;DHT22;24829;49.208;12.080;2023-08-17T12:27:02;31.90;96.70
39079;DHT22;24829;49.208;12.080;2023-08-17T12:29:28;31.90;95.50
39079;DHT22;24829;49.208;12.080;2023-08-17T12:31:57;31.70;95.70
39079;DHT22;24829;49.208;12.080;2023-08-17T12:34:22;31.50;96.20
39079;DHT22;24829;49.208;12.080;2023-08-17T12:36:49;31.40;96.20
39079;DHT22;24829;49.208;12.080;2023-08-17T12:39:15;31.20;95.80
39079;DHT22;24829;49.208;12.080;2023-08-17T12:41:41;31.30;95.60
39079;DHT22;24829;49.208;12.080;2023-08-17T12:44:11;31.20;96.40
39079;DHT22;24829;49.208;12.080;2023-08-17T12:46:40;31.30;96.10
39079;DHT22;24829;49.208;12.080;2023-08-17T12:49:06;31.40;96.10
39079;DHT22;24829;49.208;12.080;2023-08-17T12:51:31;31.40;96.20
39079;DHT22;24829;49.208;12.080;2023-08-17T12:53:57;31.30;96.40
39079;DHT22;24829;49.208;12.080;2023-08-17T12:56:23;31.20;95.90
39079;DHT22;24829;49.208;12.080;2023-08-17T12:58:48;31.20;95.70
39079;DHT22;24829;49.208;12.080;2023-08-17T13:01:14;31.10;95.80
39079;DHT22;24829;49.208;12.080;2023-08-17T13:03:40;31.00;96.30
39079;DHT22;24829;49.208;12.080;2023-08-17T13:06:06;31.10;96.10
39079;DHT22;24829;49.208;12.080;2023-08-17T13:08:32;31.20;96.50
39079;DHT22;24829;49.208;12.080;2023-08-17T13:10:58;31.30;96.50
39079;DHT22;24829;49.208;12.080;2023-08-17T13:13:24;31.40;96.00
39079;DHT22;24829;49.208;12.080;2023-08-17T13:15:49;31.30;96.20
39079;DHT22;24829;49.208;12.080;2023-08-17T13:18:15;31.40;95.70
39079;DHT22;24829;49.208;12.080;2023-08-17T13:20:41;31.50;95.80
39079;DHT22;24829;49.208;12.080;2023-08-17T13:23:06;31.50;96.00
39079;DHT22;24829;49.208;12.080;2023-08-17T13:25:32;31.50;95.80
39079;DHT22;24829;49.208;12.080;2023-08-17T13:27:58;31.70;95.50
39079;DHT22;24829;49.208;12.080;2023-08-17T13:30:24;31.60;95.40
39079;DHT22;24829;49.208;12.080;2023-08-17T13:32:51;31.60;95.20
39079;DHT22;24829;49.208;12.080;2023-08-17T13:35:17;31.50;94.30
39079;DHT22;24829;49.208;12.080;2023-08-17T13:37:42;31.40;93.80
39079;DHT22;24829;49.208;12.080;2023-08-17T13:40:08;31.20;94.10
39079;DHT22;24829;49.208;12.080;2023-08-17T13:42:34;31.20;94.00
39079;DHT22;24829;49.208;12.080;2023-08-17T13:45:00;31.20;94.50
39079;DHT22;24829;49.208;12.080;2023-08-17T13:47:26;31.00;94.50
39079;DHT22;24829;49.208;12.080;2023-08-17T13:49:51;31.00;94.90
39079;DHT22;24829;49.208;12.080;2023-08-17T13:52:17;31.10;94.80
39079;DHT22;24829;49.208;12.080;2023-08-17T13:54:43;31.10;95.10
39079;DHT22;24829;49.208;12.080;2023-08-17T13:57:09;31.10;94.80
39079;DHT22;24829;49.208;12.080;2023-08-17T13:59:34;31.10;94.00
39079;DHT22;24829;49.208;12.080;2023-08-17T14:02:00;31.10;94.30
39079;DHT22;24829;49.208;12.080;2023-08-17T14:04:26;31.10;94.70
39079;DHT22;24829;49.208;12.080;2023-08-17T14:06:51;31.20;94.70
39079;DHT22;24829;49.208;12.080;2023-08-17T14:09:17;31.20;94.20
39079;DHT22;24829;49.208;12.080;2023-08-17T14:11:43;31.30;94.10
39079;DHT22;24829;49.208;12.080;2023-08-17T14:14:09;31.20;94.50
39079;DHT22;24829;49.208;12.080;2023-08-17T14:16:35;31.30;94.50
39079;DHT22;24829;49.208;12.080;2023-08-17T14:19:01;31.30;94.70
39079;DHT22;24829;49.208;12.080;2023-08-17T14:21:26;31.30;94.70
39079;DHT22;24829;49.208;12.080;2023-08-17T14:23:52;31.30;93.60
39079;DHT22;24829;49.208;12.080;2023-08-17T14:26:17;31.20;94.00
39079;DHT22;24829;49.208;12.080;2023-08-17T14:28:43;31.20;94.00
39079;DHT22;24829;49.208;12.080;2023-08-17T14:31:09;31.20;94.00
39079;DHT22;24829;49.208;12.080;2023-08-17T14:33:34;31.10;94.00
39079;DHT22;24829;49.208;12.080;2023-08-17T14:36:00;31.10;93.80
39079;DHT22;24829;49.208;12.080;2023-08-17T14:38:25;31.10;93.90
39079;DHT22;24829;49.208;12.080;2023-08-17T14:40:51;31.10;93.40
39079;DHT22;24829;49.208;12.080;2023-08-17T14:43:16;31.00;94.00
39079;DHT22;24829;49.208;12.080;2023-08-17T14:45:45;30.90;94.10
39079;DHT22;24829;49.208;12.080;2023-08-17T14:48:11;30.90;93.70
39079;DHT22;24829;49.208;12.080;2023-08-17T14:50:37;30.80;93.70
39079;DHT22;24829;49.208;12.080;2023-08-17T14:53:04;30.70;93.30
39079;DHT22;24829;49.208;12.080;2023-08-17T14:55:33;30.70;93.50
39079;DHT22;24829;49.208;12.080;2023-08-17T14:57:59;30.70;93.60
39079;DHT22;24829;49.208;12.080;2023-08-17T15:00:25;30.70;93.30
39079;DHT22;24829;49.208;12.080;2023-08-17T15:02:55;30.70;93.80
39079;DHT22;24829;49.208;12.080;2023-08-17T15:05:20;30.60;93.50
39079;DHT22;24829;49.208;12.080;2023-08-17T15:07:47;30.60;93.90
39079;DHT22;24829;49.208;12.080;2023-08-17T15:10:12;30.70;94.20
39079;DHT22;24829;49.208;12.080;2023-08-17T15:12:38;30.70;93.10
39079;DHT22;24829;49.208;12.080;2023-08-17T15:15:03;30.70;93.20
39079;DHT22;24829;49.208;12.080;2023-08-17T15:17:30;30.60;93.60
39079;DHT22;24829;49.208;12.080;2023-08-17T15:19:55;30.50;93.10
39079;DHT22;24829;49.208;12.080;2023-08-17T15:22:21;30.50;93.10
39079;DHT22;24829;49.208;12.080;2023-08-17T15:24:46;30.40;92.60